<?xml version="1.0" encoding="UTF-8" standalone="no" ?>
<gpx xmlns="http://www.topografix.com/GPX/1/1" xmlns:xsi="http://www.w3.org/2001/XMLSchema-instance" xsi:schemaLocation="http://www.topografix.com/GPX/1/1 http://www.topografix.com/GPX/1/1/gpx.xsd" version="1.1" creator="VisuGPX - https://www.visugpx.com">
  <metadata>
    <name>Guerande_Coteaux_13-23km</name>
    <desc><![CDATA[gnerando idor:8655485_13112441_15426717]]></desc>
  </metadata>
  <wpt lat="47.33101" lon="-2.42582">
    <ele>47</ele>
    <name><![CDATA[0000740]]></name>
  </wpt>
  <wpt lat="47.33141" lon="-2.42578">
    <ele>46</ele>
    <name><![CDATA[0000741]]></name>
  </wpt>
  <wpt lat="47.33133" lon="-2.42668">
    <ele>46</ele>
    <name><![CDATA[0000742]]></name>
  </wpt>
  <wpt lat="47.33143" lon="-2.42554">
    <ele>46</ele>
    <name><![CDATA[0000743]]></name>
  </wpt>
  <wpt lat="47.33101" lon="-2.42582">
    <ele>47</ele>
    <name><![CDATA[0000740]]></name>
  </wpt>
  <wpt lat="47.33141" lon="-2.42578">
    <ele>46</ele>
    <name><![CDATA[0000741]]></name>
  </wpt>
  <wpt lat="47.33133" lon="-2.42668">
    <ele>46</ele>
    <name><![CDATA[0000742]]></name>
  </wpt>
  <wpt lat="47.33143" lon="-2.42554">
    <ele>46</ele>
    <name><![CDATA[0000743]]></name>
  </wpt>
  <wpt lat="47.26827" lon="-1.54438">
    <ele>26.6</ele>
    <name><![CDATA[0001501]]></name>
    <desc><![CDATA[<p><br /><h3>Nom: Segment: 1</h3><br />Heure de départ: 12/21/2023 09:39<br/>Heure d'arrivée: 12/21/2023 19:56<br/>Distance: 112,7km (10:17)<br/>Temps déplacement: 07:03<br/>Vitesse moyenne: 10,95 km/h<br/>Vitesse moyenne mouv.: 15,96 km/h<br/>Vitesse Max.: 113,77 km/h<br/>Altitude minimale: 0 m<br/>Altitude maximale: 90 m<br/>Vitesse de montée: 194,2 m/h<br/>Vitesse de descente: -228,9 m/h<br/>Gain d'altitude: 826 m<br/>Perte d'altitude: -843 m<br/>Temps de montée: 04:15<br/>Temps de descente: 03:41<br/></p>]]></desc>
    <type><![CDATA[Point d'arrivée]]></type>
  </wpt>
  <wpt lat="47.33126" lon="-2.42617">
    <ele>46.4</ele>
    <name><![CDATA[0001500]]></name>
  </wpt>
  <wpt lat="47.26827" lon="-1.54438">
    <ele>26.6</ele>
    <name><![CDATA[0001501]]></name>
    <desc><![CDATA[<p><br /><h3>Nom: Segment: 1</h3><br />Heure de départ: 12/21/2023 09:39<br/>Heure d'arrivée: 12/21/2023 19:56<br/>Distance: 112,7km (10:17)<br/>Temps déplacement: 07:03<br/>Vitesse moyenne: 10,95 km/h<br/>Vitesse moyenne mouv.: 15,96 km/h<br/>Vitesse Max.: 113,77 km/h<br/>Altitude minimale: 0 m<br/>Altitude maximale: 90 m<br/>Vitesse de montée: 194,2 m/h<br/>Vitesse de descente: -228,9 m/h<br/>Gain d'altitude: 826 m<br/>Perte d'altitude: -843 m<br/>Temps de montée: 04:15<br/>Temps de descente: 03:41<br/></]]></desc>
  </wpt>
  <trk>
    <name><![CDATA[Guerande_CoteauxGR3_22.2km-18167601]]></name>
    <extensions>
      <line xmlns="http://www.topografix.com/GPX/gpx_style/0/2">
        <color>800080</color>
        <width>4</width>
      </line>
    </extensions>
    <trkseg>
      <trkpt lat="47.33126" lon="-2.42617">
        <ele>46</ele>
        <time>2024-01-09T12:29:25Z</time>
      </trkpt>
      <trkpt lat="47.33132" lon="-2.42648">
        <ele>46</ele>
        <time>2024-01-09T12:29:54Z</time>
      </trkpt>
      <trkpt lat="47.33126" lon="-2.42679">
        <ele>47</ele>
        <time>2024-01-09T12:30:23Z</time>
      </trkpt>
      <trkpt lat="47.33068" lon="-2.42765">
        <ele>49</ele>
        <time>2024-01-09T12:32:13Z</time>
      </trkpt>
      <trkpt lat="47.33058" lon="-2.42789">
        <ele>49</ele>
        <time>2024-01-09T12:32:39Z</time>
      </trkpt>
      <trkpt lat="47.33025" lon="-2.42834">
        <ele>49</ele>
        <time>2024-01-09T12:33:38Z</time>
      </trkpt>
      <trkpt lat="47.33018" lon="-2.42849">
        <ele>49</ele>
        <time>2024-01-09T12:33:55Z</time>
      </trkpt>
      <trkpt lat="47.3298" lon="-2.42853">
        <ele>50</ele>
        <time>2024-01-09T12:34:46Z</time>
      </trkpt>
      <trkpt lat="47.32968" lon="-2.42883">
        <ele>50</ele>
        <time>2024-01-09T12:35:17Z</time>
      </trkpt>
      <trkpt lat="47.32965" lon="-2.42908">
        <ele>50</ele>
        <time>2024-01-09T12:35:40Z</time>
      </trkpt>
      <trkpt lat="47.32954" lon="-2.42935">
        <ele>50</ele>
        <time>2024-01-09T12:36:09Z</time>
      </trkpt>
      <trkpt lat="47.3296" lon="-2.4296">
        <ele>50</ele>
        <time>2024-01-09T12:36:33Z</time>
      </trkpt>
      <trkpt lat="47.32966" lon="-2.43082">
        <ele>48</ele>
        <time>2024-01-09T12:38:23Z</time>
      </trkpt>
      <trkpt lat="47.3296" lon="-2.43109">
        <ele>48</ele>
        <time>2024-01-09T12:38:49Z</time>
      </trkpt>
      <trkpt lat="47.3295" lon="-2.43132">
        <ele>47</ele>
        <time>2024-01-09T12:39:14Z</time>
      </trkpt>
      <trkpt lat="47.32934" lon="-2.43154">
        <ele>47</ele>
        <time>2024-01-09T12:39:43Z</time>
      </trkpt>
      <trkpt lat="47.32916" lon="-2.43172">
        <ele>47</ele>
        <time>2024-01-09T12:40:12Z</time>
      </trkpt>
      <trkpt lat="47.32879" lon="-2.43194">
        <ele>48</ele>
        <time>2024-01-09T12:41:05Z</time>
      </trkpt>
      <trkpt lat="47.32844" lon="-2.43231">
        <ele>48</ele>
        <time>2024-01-09T12:42:03Z</time>
      </trkpt>
      <trkpt lat="47.3285" lon="-2.43257">
        <ele>47</ele>
        <time>2024-01-09T12:42:28Z</time>
      </trkpt>
      <trkpt lat="47.3287" lon="-2.43529">
        <ele>46</ele>
        <time>2024-01-09T12:46:35Z</time>
      </trkpt>
      <trkpt lat="47.32905" lon="-2.4376">
        <ele>47</ele>
        <time>2024-01-09T12:50:09Z</time>
      </trkpt>
      <trkpt lat="47.32895" lon="-2.43785">
        <ele>47</ele>
        <time>2024-01-09T12:50:35Z</time>
      </trkpt>
      <trkpt lat="47.32908" lon="-2.43804">
        <ele>46</ele>
        <time>2024-01-09T12:51:00Z</time>
      </trkpt>
      <trkpt lat="47.32919" lon="-2.43832">
        <ele>46</ele>
        <time>2024-01-09T12:51:29Z</time>
      </trkpt>
      <trkpt lat="47.3293" lon="-2.43893">
        <ele>47</ele>
        <time>2024-01-09T12:52:26Z</time>
      </trkpt>
      <trkpt lat="47.32941" lon="-2.43914">
        <ele>47</ele>
        <time>2024-01-09T12:52:50Z</time>
      </trkpt>
      <trkpt lat="47.32998" lon="-2.43877">
        <ele>47</ele>
        <time>2024-01-09T12:54:13Z</time>
      </trkpt>
      <trkpt lat="47.33019" lon="-2.43866">
        <ele>47</ele>
        <time>2024-01-09T12:54:43Z</time>
      </trkpt>
      <trkpt lat="47.33169" lon="-2.43812">
        <ele>47</ele>
        <time>2024-01-09T12:58:09Z</time>
      </trkpt>
      <trkpt lat="47.33183" lon="-2.4379">
        <ele>48</ele>
        <time>2024-01-09T12:58:36Z</time>
      </trkpt>
      <trkpt lat="47.33283" lon="-2.4376">
        <ele>47</ele>
        <time>2024-01-09T13:00:52Z</time>
      </trkpt>
      <trkpt lat="47.33323" lon="-2.43755">
        <ele>46</ele>
        <time>2024-01-09T13:01:46Z</time>
      </trkpt>
      <trkpt lat="47.33416" lon="-2.43916">
        <ele>47</ele>
        <time>2024-01-09T13:04:57Z</time>
      </trkpt>
      <trkpt lat="47.33501" lon="-2.44054">
        <ele>47</ele>
        <time>2024-01-09T13:07:46Z</time>
      </trkpt>
      <trkpt lat="47.33505" lon="-2.44085">
        <ele>47</ele>
        <time>2024-01-09T13:08:15Z</time>
      </trkpt>
      <trkpt lat="47.33512" lon="-2.44115">
        <ele>47</ele>
        <time>2024-01-09T13:08:43Z</time>
      </trkpt>
      <trkpt lat="47.33647" lon="-2.4422">
        <ele>49</ele>
        <time>2024-01-09T13:12:07Z</time>
      </trkpt>
      <trkpt lat="47.33683" lon="-2.44254">
        <ele>49</ele>
        <time>2024-01-09T13:13:04Z</time>
      </trkpt>
      <trkpt lat="47.33734" lon="-2.44309">
        <ele>47</ele>
        <time>2024-01-09T13:14:28Z</time>
      </trkpt>
      <trkpt lat="47.33754" lon="-2.44322">
        <ele>46</ele>
        <time>2024-01-09T13:14:57Z</time>
      </trkpt>
      <trkpt lat="47.33774" lon="-2.44334">
        <ele>46</ele>
        <time>2024-01-09T13:15:26Z</time>
      </trkpt>
      <trkpt lat="47.33795" lon="-2.4434">
        <ele>47</ele>
        <time>2024-01-09T13:15:55Z</time>
      </trkpt>
      <trkpt lat="47.3384" lon="-2.44345">
        <ele>46</ele>
        <time>2024-01-09T13:16:55Z</time>
      </trkpt>
      <trkpt lat="47.33883" lon="-2.44355">
        <ele>45</ele>
        <time>2024-01-09T13:17:53Z</time>
      </trkpt>
      <trkpt lat="47.33905" lon="-2.44351">
        <ele>44</ele>
        <time>2024-01-09T13:18:23Z</time>
      </trkpt>
      <trkpt lat="47.33923" lon="-2.44357">
        <ele>43</ele>
        <time>2024-01-09T13:18:47Z</time>
      </trkpt>
      <trkpt lat="47.34002" lon="-2.44404">
        <ele>42</ele>
        <time>2024-01-09T13:20:41Z</time>
      </trkpt>
      <trkpt lat="47.34021" lon="-2.44418">
        <ele>42</ele>
        <time>2024-01-09T13:21:09Z</time>
      </trkpt>
      <trkpt lat="47.34038" lon="-2.44437">
        <ele>42</ele>
        <time>2024-01-09T13:21:38Z</time>
      </trkpt>
      <trkpt lat="47.34049" lon="-2.44465">
        <ele>42</ele>
        <time>2024-01-09T13:22:07Z</time>
      </trkpt>
      <trkpt lat="47.34051" lon="-2.44523">
        <ele>42</ele>
        <time>2024-01-09T13:23:00Z</time>
      </trkpt>
      <trkpt lat="47.34056" lon="-2.44578">
        <ele>42</ele>
        <time>2024-01-09T13:23:50Z</time>
      </trkpt>
      <trkpt lat="47.34051" lon="-2.44646">
        <ele>42</ele>
        <time>2024-01-09T13:24:52Z</time>
      </trkpt>
      <trkpt lat="47.34041" lon="-2.44733">
        <ele>42</ele>
        <time>2024-01-09T13:26:11Z</time>
      </trkpt>
      <trkpt lat="47.34027" lon="-2.44792">
        <ele>43</ele>
        <time>2024-01-09T13:27:08Z</time>
      </trkpt>
      <trkpt lat="47.34001" lon="-2.44872">
        <ele>44</ele>
        <time>2024-01-09T13:28:28Z</time>
      </trkpt>
      <trkpt lat="47.33988" lon="-2.44938">
        <ele>45</ele>
        <time>2024-01-09T13:29:30Z</time>
      </trkpt>
      <trkpt lat="47.33987" lon="-2.44969">
        <ele>45</ele>
        <time>2024-01-09T13:29:58Z</time>
      </trkpt>
      <trkpt lat="47.33993" lon="-2.44999">
        <ele>46</ele>
        <time>2024-01-09T13:30:27Z</time>
      </trkpt>
      <trkpt lat="47.33996" lon="-2.45031">
        <ele>46</ele>
        <time>2024-01-09T13:30:56Z</time>
      </trkpt>
      <trkpt lat="47.34011" lon="-2.45089">
        <ele>46</ele>
        <time>2024-01-09T13:31:52Z</time>
      </trkpt>
      <trkpt lat="47.3403" lon="-2.45142">
        <ele>46</ele>
        <time>2024-01-09T13:32:46Z</time>
      </trkpt>
      <trkpt lat="47.34051" lon="-2.45227">
        <ele>47</ele>
        <time>2024-01-09T13:34:08Z</time>
      </trkpt>
      <trkpt lat="47.34061" lon="-2.45252">
        <ele>47</ele>
        <time>2024-01-09T13:34:34Z</time>
      </trkpt>
      <trkpt lat="47.34082" lon="-2.45246">
        <ele>47</ele>
        <time>2024-01-09T13:35:03Z</time>
      </trkpt>
      <trkpt lat="47.34272" lon="-2.45104">
        <ele>45</ele>
        <time>2024-01-09T13:39:47Z</time>
      </trkpt>
      <trkpt lat="47.34309" lon="-2.45074">
        <ele>46</ele>
        <time>2024-01-09T13:40:43Z</time>
      </trkpt>
      <trkpt lat="47.34326" lon="-2.45057">
        <ele>47</ele>
        <time>2024-01-09T13:41:11Z</time>
      </trkpt>
      <trkpt lat="47.34376" lon="-2.44999">
        <ele>47</ele>
        <time>2024-01-09T13:42:36Z</time>
      </trkpt>
      <trkpt lat="47.34398" lon="-2.44993">
        <ele>46</ele>
        <time>2024-01-09T13:43:05Z</time>
      </trkpt>
      <trkpt lat="47.34413" lon="-2.45015">
        <ele>46</ele>
        <time>2024-01-09T13:43:34Z</time>
      </trkpt>
      <trkpt lat="47.34426" lon="-2.4504">
        <ele>45</ele>
        <time>2024-01-09T13:44:02Z</time>
      </trkpt>
      <trkpt lat="47.3446" lon="-2.45121">
        <ele>44</ele>
        <time>2024-01-09T13:45:28Z</time>
      </trkpt>
      <trkpt lat="47.34509" lon="-2.45181">
        <ele>42</ele>
        <time>2024-01-09T13:46:53Z</time>
      </trkpt>
      <trkpt lat="47.34584" lon="-2.45293">
        <ele>43</ele>
        <time>2024-01-09T13:49:16Z</time>
      </trkpt>
      <trkpt lat="47.34638" lon="-2.45422">
        <ele>41</ele>
        <time>2024-01-09T13:51:33Z</time>
      </trkpt>
      <trkpt lat="47.34695" lon="-2.45582">
        <ele>44</ele>
        <time>2024-01-09T13:54:16Z</time>
      </trkpt>
      <trkpt lat="47.34718" lon="-2.45631">
        <ele>43</ele>
        <time>2024-01-09T13:55:10Z</time>
      </trkpt>
      <trkpt lat="47.34732" lon="-2.45655">
        <ele>43</ele>
        <time>2024-01-09T13:55:39Z</time>
      </trkpt>
      <trkpt lat="47.34765" lon="-2.45736">
        <ele>43</ele>
        <time>2024-01-09T13:57:04Z</time>
      </trkpt>
      <trkpt lat="47.34773" lon="-2.45766">
        <ele>43</ele>
        <time>2024-01-09T13:57:33Z</time>
      </trkpt>
      <trkpt lat="47.34783" lon="-2.45824">
        <ele>42</ele>
        <time>2024-01-09T13:58:28Z</time>
      </trkpt>
      <trkpt lat="47.34791" lon="-2.45884">
        <ele>41</ele>
        <time>2024-01-09T13:59:23Z</time>
      </trkpt>
      <trkpt lat="47.34796" lon="-2.45946">
        <ele>39</ele>
        <time>2024-01-09T14:00:19Z</time>
      </trkpt>
      <trkpt lat="47.3481" lon="-2.46033">
        <ele>37</ele>
        <time>2024-01-09T14:01:40Z</time>
      </trkpt>
      <trkpt lat="47.34816" lon="-2.46097">
        <ele>36</ele>
        <time>2024-01-09T14:02:39Z</time>
      </trkpt>
      <trkpt lat="47.34815" lon="-2.46125">
        <ele>37</ele>
        <time>2024-01-09T14:03:04Z</time>
      </trkpt>
      <trkpt lat="47.34819" lon="-2.46153">
        <ele>37</ele>
        <time>2024-01-09T14:03:30Z</time>
      </trkpt>
      <trkpt lat="47.34821" lon="-2.46213">
        <ele>38</ele>
        <time>2024-01-09T14:04:24Z</time>
      </trkpt>
      <trkpt lat="47.34819" lon="-2.46245">
        <ele>39</ele>
        <time>2024-01-09T14:04:53Z</time>
      </trkpt>
      <trkpt lat="47.34803" lon="-2.46259">
        <ele>38</ele>
        <time>2024-01-09T14:05:18Z</time>
      </trkpt>
      <trkpt lat="47.34783" lon="-2.46266">
        <ele>38</ele>
        <time>2024-01-09T14:05:45Z</time>
      </trkpt>
      <trkpt lat="47.34763" lon="-2.46267">
        <ele>37</ele>
        <time>2024-01-09T14:06:12Z</time>
      </trkpt>
      <trkpt lat="47.34724" lon="-2.46278">
        <ele>37</ele>
        <time>2024-01-09T14:07:05Z</time>
      </trkpt>
      <trkpt lat="47.34605" lon="-2.46325">
        <ele>39</ele>
        <time>2024-01-09T14:09:49Z</time>
      </trkpt>
      <trkpt lat="47.34586" lon="-2.46334">
        <ele>39</ele>
        <time>2024-01-09T14:10:16Z</time>
      </trkpt>
      <trkpt lat="47.34568" lon="-2.46346">
        <ele>39</ele>
        <time>2024-01-09T14:10:42Z</time>
      </trkpt>
      <trkpt lat="47.34537" lon="-2.4638">
        <ele>40</ele>
        <time>2024-01-09T14:11:34Z</time>
      </trkpt>
      <trkpt lat="47.34518" lon="-2.46393">
        <ele>41</ele>
        <time>2024-01-09T14:12:02Z</time>
      </trkpt>
      <trkpt lat="47.34401" lon="-2.4645">
        <ele>41</ele>
        <time>2024-01-09T14:14:46Z</time>
      </trkpt>
      <trkpt lat="47.34343" lon="-2.46472">
        <ele>42</ele>
        <time>2024-01-09T14:16:06Z</time>
      </trkpt>
      <trkpt lat="47.34323" lon="-2.46477">
        <ele>42</ele>
        <time>2024-01-09T14:16:33Z</time>
      </trkpt>
      <trkpt lat="47.3416" lon="-2.46493">
        <ele>42</ele>
        <time>2024-01-09T14:20:11Z</time>
      </trkpt>
      <trkpt lat="47.34097" lon="-2.46492">
        <ele>43</ele>
        <time>2024-01-09T14:21:35Z</time>
      </trkpt>
      <trkpt lat="47.34076" lon="-2.46494">
        <ele>43</ele>
        <time>2024-01-09T14:22:03Z</time>
      </trkpt>
      <trkpt lat="47.34058" lon="-2.46504">
        <ele>43</ele>
        <time>2024-01-09T14:22:29Z</time>
      </trkpt>
      <trkpt lat="47.33948" lon="-2.46581">
        <ele>45</ele>
        <time>2024-01-09T14:25:12Z</time>
      </trkpt>
      <trkpt lat="47.33913" lon="-2.46613">
        <ele>45</ele>
        <time>2024-01-09T14:26:07Z</time>
      </trkpt>
      <trkpt lat="47.3388" lon="-2.4665">
        <ele>45</ele>
        <time>2024-01-09T14:27:02Z</time>
      </trkpt>
      <trkpt lat="47.33823" lon="-2.4669">
        <ele>44</ele>
        <time>2024-01-09T14:28:26Z</time>
      </trkpt>
      <trkpt lat="47.33803" lon="-2.46701">
        <ele>44</ele>
        <time>2024-01-09T14:28:55Z</time>
      </trkpt>
      <trkpt lat="47.33783" lon="-2.46703">
        <ele>44</ele>
        <time>2024-01-09T14:29:21Z</time>
      </trkpt>
      <trkpt lat="47.33762" lon="-2.467">
        <ele>45</ele>
        <time>2024-01-09T14:29:49Z</time>
      </trkpt>
      <trkpt lat="47.33742" lon="-2.46692">
        <ele>45</ele>
        <time>2024-01-09T14:30:17Z</time>
      </trkpt>
      <trkpt lat="47.33705" lon="-2.467">
        <ele>44</ele>
        <time>2024-01-09T14:31:07Z</time>
      </trkpt>
      <trkpt lat="47.3363" lon="-2.46743">
        <ele>39</ele>
        <time>2024-01-09T14:32:54Z</time>
      </trkpt>
      <trkpt lat="47.33631" lon="-2.4677">
        <ele>38</ele>
        <time>2024-01-09T14:33:19Z</time>
      </trkpt>
      <trkpt lat="47.33658" lon="-2.46811">
        <ele>39</ele>
        <time>2024-01-09T14:34:11Z</time>
      </trkpt>
      <trkpt lat="47.33677" lon="-2.46813">
        <ele>40</ele>
        <time>2024-01-09T14:34:36Z</time>
      </trkpt>
      <trkpt lat="47.33693" lon="-2.46833">
        <ele>40</ele>
        <time>2024-01-09T14:35:04Z</time>
      </trkpt>
      <trkpt lat="47.33704" lon="-2.46858">
        <ele>39</ele>
        <time>2024-01-09T14:35:31Z</time>
      </trkpt>
      <trkpt lat="47.3372" lon="-2.46875">
        <ele>39</ele>
        <time>2024-01-09T14:35:57Z</time>
      </trkpt>
      <trkpt lat="47.33735" lon="-2.46896">
        <ele>40</ele>
        <time>2024-01-09T14:36:25Z</time>
      </trkpt>
      <trkpt lat="47.33747" lon="-2.46918">
        <ele>40</ele>
        <time>2024-01-09T14:36:50Z</time>
      </trkpt>
      <trkpt lat="47.33747" lon="-2.4701">
        <ele>36</ele>
        <time>2024-01-09T14:38:14Z</time>
      </trkpt>
      <trkpt lat="47.33757" lon="-2.47097">
        <ele>34</ele>
        <time>2024-01-09T14:39:33Z</time>
      </trkpt>
      <trkpt lat="47.33776" lon="-2.47179">
        <ele>34</ele>
        <time>2024-01-09T14:40:52Z</time>
      </trkpt>
      <trkpt lat="47.33784" lon="-2.47265">
        <ele>33</ele>
        <time>2024-01-09T14:42:10Z</time>
      </trkpt>
      <trkpt lat="47.33784" lon="-2.47321">
        <ele>31</ele>
        <time>2024-01-09T14:43:01Z</time>
      </trkpt>
      <trkpt lat="47.33769" lon="-2.47435">
        <ele>27</ele>
        <time>2024-01-09T14:44:46Z</time>
      </trkpt>
      <trkpt lat="47.33758" lon="-2.47491">
        <ele>26</ele>
        <time>2024-01-09T14:45:39Z</time>
      </trkpt>
      <trkpt lat="47.33744" lon="-2.47546">
        <ele>25</ele>
        <time>2024-01-09T14:46:32Z</time>
      </trkpt>
      <trkpt lat="47.33736" lon="-2.47602">
        <ele>23</ele>
        <time>2024-01-09T14:47:24Z</time>
      </trkpt>
      <trkpt lat="47.33722" lon="-2.47623">
        <ele>22</ele>
        <time>2024-01-09T14:47:50Z</time>
      </trkpt>
      <trkpt lat="47.33703" lon="-2.47622">
        <ele>22</ele>
        <time>2024-01-09T14:48:16Z</time>
      </trkpt>
      <trkpt lat="47.33682" lon="-2.47628">
        <ele>22</ele>
        <time>2024-01-09T14:48:44Z</time>
      </trkpt>
      <trkpt lat="47.33623" lon="-2.47668">
        <ele>21</ele>
        <time>2024-01-09T14:50:11Z</time>
      </trkpt>
      <trkpt lat="47.3359" lon="-2.47698">
        <ele>21</ele>
        <time>2024-01-09T14:51:02Z</time>
      </trkpt>
      <trkpt lat="47.3357" lon="-2.477">
        <ele>20</ele>
        <time>2024-01-09T14:51:29Z</time>
      </trkpt>
      <trkpt lat="47.33535" lon="-2.47677">
        <ele>20</ele>
        <time>2024-01-09T14:52:20Z</time>
      </trkpt>
      <trkpt lat="47.33519" lon="-2.47659">
        <ele>20</ele>
        <time>2024-01-09T14:52:47Z</time>
      </trkpt>
      <trkpt lat="47.33498" lon="-2.4761">
        <ele>22</ele>
        <time>2024-01-09T14:53:40Z</time>
      </trkpt>
      <trkpt lat="47.33481" lon="-2.47598">
        <ele>21</ele>
        <time>2024-01-09T14:54:05Z</time>
      </trkpt>
      <trkpt lat="47.33466" lon="-2.47575">
        <ele>21</ele>
        <time>2024-01-09T14:54:34Z</time>
      </trkpt>
      <trkpt lat="47.33441" lon="-2.47524">
        <ele>20</ele>
        <time>2024-01-09T14:55:31Z</time>
      </trkpt>
      <trkpt lat="47.33432" lon="-2.47499">
        <ele>20</ele>
        <time>2024-01-09T14:55:56Z</time>
      </trkpt>
      <trkpt lat="47.33415" lon="-2.47443">
        <ele>20</ele>
        <time>2024-01-09T14:56:52Z</time>
      </trkpt>
      <trkpt lat="47.33387" lon="-2.47332">
        <ele>21</ele>
        <time>2024-01-09T14:58:39Z</time>
      </trkpt>
      <trkpt lat="47.33378" lon="-2.47243">
        <ele>20</ele>
        <time>2024-01-09T15:00:00Z</time>
      </trkpt>
      <trkpt lat="47.33365" lon="-2.47156">
        <ele>19</ele>
        <time>2024-01-09T15:01:21Z</time>
      </trkpt>
      <trkpt lat="47.3335" lon="-2.47094">
        <ele>17</ele>
        <time>2024-01-09T15:02:20Z</time>
      </trkpt>
      <trkpt lat="47.33342" lon="-2.47038">
        <ele>16</ele>
        <time>2024-01-09T15:03:12Z</time>
      </trkpt>
      <trkpt lat="47.33324" lon="-2.46951">
        <ele>18</ele>
        <time>2024-01-09T15:04:34Z</time>
      </trkpt>
      <trkpt lat="47.3331" lon="-2.46899">
        <ele>21</ele>
        <time>2024-01-09T15:05:25Z</time>
      </trkpt>
      <trkpt lat="47.33306" lon="-2.46872">
        <ele>22</ele>
        <time>2024-01-09T15:05:50Z</time>
      </trkpt>
      <trkpt lat="47.33274" lon="-2.46793">
        <ele>24</ele>
        <time>2024-01-09T15:07:13Z</time>
      </trkpt>
      <trkpt lat="47.33257" lon="-2.46783">
        <ele>23</ele>
        <time>2024-01-09T15:07:38Z</time>
      </trkpt>
      <trkpt lat="47.33234" lon="-2.4679">
        <ele>22</ele>
        <time>2024-01-09T15:08:09Z</time>
      </trkpt>
      <trkpt lat="47.33214" lon="-2.46791">
        <ele>21</ele>
        <time>2024-01-09T15:08:36Z</time>
      </trkpt>
      <trkpt lat="47.33195" lon="-2.46773">
        <ele>21</ele>
        <time>2024-01-09T15:09:06Z</time>
      </trkpt>
      <trkpt lat="47.33151" lon="-2.46716">
        <ele>19</ele>
        <time>2024-01-09T15:10:24Z</time>
      </trkpt>
      <trkpt lat="47.33101" lon="-2.46629">
        <ele>18</ele>
        <time>2024-01-09T15:12:07Z</time>
      </trkpt>
      <trkpt lat="47.33078" lon="-2.46548">
        <ele>18</ele>
        <time>2024-01-09T15:13:26Z</time>
      </trkpt>
      <trkpt lat="47.33064" lon="-2.46529">
        <ele>17</ele>
        <time>2024-01-09T15:13:52Z</time>
      </trkpt>
      <trkpt lat="47.33046" lon="-2.46537">
        <ele>15</ele>
        <time>2024-01-09T15:14:17Z</time>
      </trkpt>
      <trkpt lat="47.33005" lon="-2.46544">
        <ele>11</ele>
        <time>2024-01-09T15:15:12Z</time>
      </trkpt>
      <trkpt lat="47.32967" lon="-2.46562">
        <ele>10</ele>
        <time>2024-01-09T15:16:05Z</time>
      </trkpt>
      <trkpt lat="47.32946" lon="-2.46575">
        <ele>9</ele>
        <time>2024-01-09T15:16:36Z</time>
      </trkpt>
      <trkpt lat="47.32954" lon="-2.46552">
        <ele>10</ele>
        <time>2024-01-09T15:16:59Z</time>
      </trkpt>
      <trkpt lat="47.32958" lon="-2.46518">
        <ele>10</ele>
        <time>2024-01-09T15:17:30Z</time>
      </trkpt>
      <trkpt lat="47.32962" lon="-2.46427">
        <ele>14</ele>
        <time>2024-01-09T15:18:53Z</time>
      </trkpt>
      <trkpt lat="47.32962" lon="-2.46365">
        <ele>19</ele>
        <time>2024-01-09T15:19:49Z</time>
      </trkpt>
      <trkpt lat="47.32949" lon="-2.46308">
        <ele>21</ele>
        <time>2024-01-09T15:20:43Z</time>
      </trkpt>
      <trkpt lat="47.32918" lon="-2.4622">
        <ele>23</ele>
        <time>2024-01-09T15:22:13Z</time>
      </trkpt>
      <trkpt lat="47.32905" lon="-2.46166">
        <ele>24</ele>
        <time>2024-01-09T15:23:05Z</time>
      </trkpt>
      <trkpt lat="47.32887" lon="-2.46153">
        <ele>23</ele>
        <time>2024-01-09T15:23:31Z</time>
      </trkpt>
      <trkpt lat="47.3285" lon="-2.46177">
        <ele>20</ele>
        <time>2024-01-09T15:24:25Z</time>
      </trkpt>
      <trkpt lat="47.32809" lon="-2.46194">
        <ele>16</ele>
        <time>2024-01-09T15:25:22Z</time>
      </trkpt>
      <trkpt lat="47.32776" lon="-2.46162">
        <ele>15</ele>
        <time>2024-01-09T15:26:15Z</time>
      </trkpt>
      <trkpt lat="47.32763" lon="-2.46137">
        <ele>14</ele>
        <time>2024-01-09T15:26:43Z</time>
      </trkpt>
      <trkpt lat="47.32759" lon="-2.46111">
        <ele>14</ele>
        <time>2024-01-09T15:27:08Z</time>
      </trkpt>
      <trkpt lat="47.32746" lon="-2.4609">
        <ele>14</ele>
        <time>2024-01-09T15:27:33Z</time>
      </trkpt>
      <trkpt lat="47.32714" lon="-2.46053">
        <ele>11</ele>
        <time>2024-01-09T15:28:28Z</time>
      </trkpt>
      <trkpt lat="47.32686" lon="-2.46016">
        <ele>10</ele>
        <time>2024-01-09T15:29:18Z</time>
      </trkpt>
      <trkpt lat="47.32678" lon="-2.45985">
        <ele>10</ele>
        <time>2024-01-09T15:29:48Z</time>
      </trkpt>
      <trkpt lat="47.32624" lon="-2.4594">
        <ele>10</ele>
        <time>2024-01-09T15:31:10Z</time>
      </trkpt>
      <trkpt lat="47.32564" lon="-2.45856">
        <ele>9</ele>
        <time>2024-01-09T15:33:01Z</time>
      </trkpt>
      <trkpt lat="47.32554" lon="-2.45831">
        <ele>9</ele>
        <time>2024-01-09T15:33:27Z</time>
      </trkpt>
      <trkpt lat="47.32538" lon="-2.45812">
        <ele>8</ele>
        <time>2024-01-09T15:33:55Z</time>
      </trkpt>
      <trkpt lat="47.32527" lon="-2.45789">
        <ele>8</ele>
        <time>2024-01-09T15:34:20Z</time>
      </trkpt>
      <trkpt lat="47.32513" lon="-2.45771">
        <ele>8</ele>
        <time>2024-01-09T15:34:45Z</time>
      </trkpt>
      <trkpt lat="47.32464" lon="-2.45683">
        <ele>9</ele>
        <time>2024-01-09T15:36:28Z</time>
      </trkpt>
      <trkpt lat="47.32435" lon="-2.45642">
        <ele>9</ele>
        <time>2024-01-09T15:37:21Z</time>
      </trkpt>
      <trkpt lat="47.3241" lon="-2.45596">
        <ele>10</ele>
        <time>2024-01-09T15:38:15Z</time>
      </trkpt>
      <trkpt lat="47.32378" lon="-2.45524">
        <ele>10</ele>
        <time>2024-01-09T15:39:33Z</time>
      </trkpt>
      <trkpt lat="47.32325" lon="-2.45439">
        <ele>10</ele>
        <time>2024-01-09T15:41:17Z</time>
      </trkpt>
      <trkpt lat="47.32316" lon="-2.45415">
        <ele>10</ele>
        <time>2024-01-09T15:41:42Z</time>
      </trkpt>
      <trkpt lat="47.32321" lon="-2.45385">
        <ele>11</ele>
        <time>2024-01-09T15:42:10Z</time>
      </trkpt>
      <trkpt lat="47.32312" lon="-2.45297">
        <ele>12</ele>
        <time>2024-01-09T15:43:30Z</time>
      </trkpt>
      <trkpt lat="47.32295" lon="-2.45243">
        <ele>12</ele>
        <time>2024-01-09T15:44:24Z</time>
      </trkpt>
      <trkpt lat="47.32272" lon="-2.45194">
        <ele>12</ele>
        <time>2024-01-09T15:45:18Z</time>
      </trkpt>
      <trkpt lat="47.32258" lon="-2.45134">
        <ele>13</ele>
        <time>2024-01-09T15:46:15Z</time>
      </trkpt>
      <trkpt lat="47.3224" lon="-2.45086">
        <ele>14</ele>
        <time>2024-01-09T15:47:05Z</time>
      </trkpt>
      <trkpt lat="47.32218" lon="-2.45041">
        <ele>14</ele>
        <time>2024-01-09T15:47:55Z</time>
      </trkpt>
      <trkpt lat="47.32227" lon="-2.45017">
        <ele>16</ele>
        <time>2024-01-09T15:48:20Z</time>
      </trkpt>
      <trkpt lat="47.32303" lon="-2.44927">
        <ele>21</ele>
        <time>2024-01-09T15:50:30Z</time>
      </trkpt>
      <trkpt lat="47.32319" lon="-2.44911">
        <ele>22</ele>
        <time>2024-01-09T15:50:56Z</time>
      </trkpt>
      <trkpt lat="47.32332" lon="-2.44887">
        <ele>23</ele>
        <time>2024-01-09T15:51:24Z</time>
      </trkpt>
      <trkpt lat="47.32349" lon="-2.44868">
        <ele>24</ele>
        <time>2024-01-09T15:51:52Z</time>
      </trkpt>
      <trkpt lat="47.32385" lon="-2.44837">
        <ele>27</ele>
        <time>2024-01-09T15:52:48Z</time>
      </trkpt>
      <trkpt lat="47.32443" lon="-2.44799">
        <ele>32</ele>
        <time>2024-01-09T15:54:13Z</time>
      </trkpt>
      <trkpt lat="47.32461" lon="-2.44782">
        <ele>33</ele>
        <time>2024-01-09T15:54:41Z</time>
      </trkpt>
      <trkpt lat="47.32479" lon="-2.44773">
        <ele>35</ele>
        <time>2024-01-09T15:55:06Z</time>
      </trkpt>
      <trkpt lat="47.32513" lon="-2.44744">
        <ele>37</ele>
        <time>2024-01-09T15:55:59Z</time>
      </trkpt>
      <trkpt lat="47.3253" lon="-2.44734">
        <ele>37</ele>
        <time>2024-01-09T15:56:23Z</time>
      </trkpt>
      <trkpt lat="47.3254" lon="-2.44707">
        <ele>38</ele>
        <time>2024-01-09T15:56:51Z</time>
      </trkpt>
      <trkpt lat="47.32599" lon="-2.44629">
        <ele>40</ele>
        <time>2024-01-09T15:58:37Z</time>
      </trkpt>
      <trkpt lat="47.32635" lon="-2.44567">
        <ele>41</ele>
        <time>2024-01-09T15:59:51Z</time>
      </trkpt>
      <trkpt lat="47.32661" lon="-2.44528">
        <ele>42</ele>
        <time>2024-01-09T16:00:40Z</time>
      </trkpt>
      <trkpt lat="47.32671" lon="-2.44499">
        <ele>42</ele>
        <time>2024-01-09T16:01:10Z</time>
      </trkpt>
      <trkpt lat="47.3269" lon="-2.44484">
        <ele>42</ele>
        <time>2024-01-09T16:01:38Z</time>
      </trkpt>
      <trkpt lat="47.32725" lon="-2.44463">
        <ele>43</ele>
        <time>2024-01-09T16:02:29Z</time>
      </trkpt>
      <trkpt lat="47.32741" lon="-2.44448">
        <ele>43</ele>
        <time>2024-01-09T16:02:54Z</time>
      </trkpt>
      <trkpt lat="47.32756" lon="-2.44396">
        <ele>43</ele>
        <time>2024-01-09T16:03:45Z</time>
      </trkpt>
      <trkpt lat="47.32761" lon="-2.44311">
        <ele>42</ele>
        <time>2024-01-09T16:05:02Z</time>
      </trkpt>
      <trkpt lat="47.32775" lon="-2.44223">
        <ele>43</ele>
        <time>2024-01-09T16:06:24Z</time>
      </trkpt>
      <trkpt lat="47.32775" lon="-2.44134">
        <ele>44</ele>
        <time>2024-01-09T16:07:45Z</time>
      </trkpt>
      <trkpt lat="47.32763" lon="-2.44047">
        <ele>45</ele>
        <time>2024-01-09T16:09:05Z</time>
      </trkpt>
      <trkpt lat="47.32736" lon="-2.43904">
        <ele>43</ele>
        <time>2024-01-09T16:11:19Z</time>
      </trkpt>
      <trkpt lat="47.32734" lon="-2.43876">
        <ele>43</ele>
        <time>2024-01-09T16:11:45Z</time>
      </trkpt>
      <trkpt lat="47.32735" lon="-2.43818">
        <ele>45</ele>
        <time>2024-01-09T16:12:37Z</time>
      </trkpt>
      <trkpt lat="47.32739" lon="-2.4379">
        <ele>45</ele>
        <time>2024-01-09T16:13:03Z</time>
      </trkpt>
      <trkpt lat="47.32741" lon="-2.43698">
        <ele>46</ele>
        <time>2024-01-09T16:14:26Z</time>
      </trkpt>
      <trkpt lat="47.32739" lon="-2.43668">
        <ele>46</ele>
        <time>2024-01-09T16:14:53Z</time>
      </trkpt>
      <trkpt lat="47.32726" lon="-2.43579">
        <ele>46</ele>
        <time>2024-01-09T16:16:16Z</time>
      </trkpt>
      <trkpt lat="47.32723" lon="-2.43483">
        <ele>45</ele>
        <time>2024-01-09T16:17:43Z</time>
      </trkpt>
      <trkpt lat="47.32711" lon="-2.43395">
        <ele>45</ele>
        <time>2024-01-09T16:19:04Z</time>
      </trkpt>
      <trkpt lat="47.32707" lon="-2.43309">
        <ele>45</ele>
        <time>2024-01-09T16:20:22Z</time>
      </trkpt>
      <trkpt lat="47.32714" lon="-2.43283">
        <ele>46</ele>
        <time>2024-01-09T16:20:47Z</time>
      </trkpt>
      <trkpt lat="47.32709" lon="-2.4322">
        <ele>48</ele>
        <time>2024-01-09T16:21:45Z</time>
      </trkpt>
      <trkpt lat="47.32726" lon="-2.43109">
        <ele>52</ele>
        <time>2024-01-09T16:23:28Z</time>
      </trkpt>
      <trkpt lat="47.32728" lon="-2.43079">
        <ele>53</ele>
        <time>2024-01-09T16:23:55Z</time>
      </trkpt>
      <trkpt lat="47.32742" lon="-2.43027">
        <ele>53</ele>
        <time>2024-01-09T16:24:45Z</time>
      </trkpt>
      <trkpt lat="47.32768" lon="-2.42982">
        <ele>54</ele>
        <time>2024-01-09T16:25:39Z</time>
      </trkpt>
      <trkpt lat="47.32778" lon="-2.42952">
        <ele>54</ele>
        <time>2024-01-09T16:26:09Z</time>
      </trkpt>
      <trkpt lat="47.32796" lon="-2.4295">
        <ele>54</ele>
        <time>2024-01-09T16:26:33Z</time>
      </trkpt>
      <trkpt lat="47.32857" lon="-2.42961">
        <ele>53</ele>
        <time>2024-01-09T16:27:55Z</time>
      </trkpt>
      <trkpt lat="47.32878" lon="-2.42949">
        <ele>52</ele>
        <time>2024-01-09T16:28:25Z</time>
      </trkpt>
      <trkpt lat="47.329" lon="-2.4295">
        <ele>51</ele>
        <time>2024-01-09T16:28:55Z</time>
      </trkpt>
      <trkpt lat="47.32918" lon="-2.42939">
        <ele>51</ele>
        <time>2024-01-09T16:29:21Z</time>
      </trkpt>
      <trkpt lat="47.32936" lon="-2.42933">
        <ele>50</ele>
        <time>2024-01-09T16:29:45Z</time>
      </trkpt>
      <trkpt lat="47.32953" lon="-2.42916">
        <ele>50</ele>
        <time>2024-01-09T16:30:13Z</time>
      </trkpt>
      <trkpt lat="47.32961" lon="-2.42892">
        <ele>50</ele>
        <time>2024-01-09T16:30:37Z</time>
      </trkpt>
      <trkpt lat="47.32959" lon="-2.42857">
        <ele>51</ele>
        <time>2024-01-09T16:31:09Z</time>
      </trkpt>
      <trkpt lat="47.32979" lon="-2.42844">
        <ele>50</ele>
        <time>2024-01-09T16:31:38Z</time>
      </trkpt>
      <trkpt lat="47.33" lon="-2.42839">
        <ele>50</ele>
        <time>2024-01-09T16:32:06Z</time>
      </trkpt>
      <trkpt lat="47.33019" lon="-2.42839">
        <ele>49</ele>
        <time>2024-01-09T16:32:32Z</time>
      </trkpt>
      <trkpt lat="47.3303" lon="-2.42817">
        <ele>49</ele>
        <time>2024-01-09T16:32:56Z</time>
      </trkpt>
      <trkpt lat="47.33061" lon="-2.42778">
        <ele>49</ele>
        <time>2024-01-09T16:33:51Z</time>
      </trkpt>
      <trkpt lat="47.33073" lon="-2.42752">
        <ele>49</ele>
        <time>2024-01-09T16:34:19Z</time>
      </trkpt>
      <trkpt lat="47.33091" lon="-2.42723">
        <ele>48</ele>
        <time>2024-01-09T16:34:55Z</time>
      </trkpt>
      <trkpt lat="47.33121" lon="-2.42684">
        <ele>47</ele>
        <time>2024-01-09T16:35:48Z</time>
      </trkpt>
      <trkpt lat="47.33136" lon="-2.4263">
        <ele>46</ele>
        <time>2024-01-09T16:36:41Z</time>
      </trkpt>
      <trkpt lat="47.33122" lon="-2.42612">
        <ele>46</ele>
        <time>2024-01-09T16:37:06Z</time>
      </trkpt>
      <trkpt lat="47.33135" lon="-2.42588">
        <ele>46</ele>
        <time>2024-01-09T16:37:33Z</time>
      </trkpt>
      <trkpt lat="47.33143" lon="-2.42559">
        <ele>46</ele>
        <time>2024-01-09T16:38:02Z</time>
      </trkpt>
      <trkpt lat="47.33175" lon="-2.4253">
        <ele>46</ele>
        <time>2024-01-09T16:38:52Z</time>
      </trkpt>
      <trkpt lat="47.3323" lon="-2.42495">
        <ele>47</ele>
        <time>2024-01-09T16:40:12Z</time>
      </trkpt>
      <trkpt lat="47.33251" lon="-2.4249">
        <ele>47</ele>
        <time>2024-01-09T16:40:40Z</time>
      </trkpt>
      <trkpt lat="47.33268" lon="-2.42495">
        <ele>47</ele>
        <time>2024-01-09T16:41:03Z</time>
      </trkpt>
      <trkpt lat="47.33248" lon="-2.42493">
        <ele>47</ele>
        <time>2024-01-09T16:41:30Z</time>
      </trkpt>
      <trkpt lat="47.33207" lon="-2.4251">
        <ele>46</ele>
        <time>2024-01-09T16:42:27Z</time>
      </trkpt>
      <trkpt lat="47.33188" lon="-2.42523">
        <ele>46</ele>
        <time>2024-01-09T16:42:55Z</time>
      </trkpt>
      <trkpt lat="47.3315" lon="-2.4256">
        <ele>46</ele>
        <time>2024-01-09T16:43:56Z</time>
      </trkpt>
      <trkpt lat="47.33136" lon="-2.42584">
        <ele>46</ele>
        <time>2024-01-09T16:44:24Z</time>
      </trkpt>
      <trkpt lat="47.3313" lon="-2.42611">
        <ele>46</ele>
        <time>2024-01-09T16:44:50Z</time>
      </trkpt>
      <trkpt lat="47.3311" lon="-2.42607">
        <ele>47</ele>
        <time>2024-01-09T16:45:17Z</time>
      </trkpt>
      <trkpt lat="47.33097" lon="-2.42584">
        <ele>47</ele>
        <time>2024-01-09T16:45:44Z</time>
      </trkpt>
      <trkpt lat="47.33082" lon="-2.42528">
        <ele>48</ele>
        <time>2024-01-09T16:46:38Z</time>
      </trkpt>
      <trkpt lat="47.33068" lon="-2.42507">
        <ele>48</ele>
        <time>2024-01-09T16:47:05Z</time>
      </trkpt>
      <trkpt lat="47.33039" lon="-2.42429">
        <ele>48</ele>
        <time>2024-01-09T16:48:25Z</time>
      </trkpt>
      <trkpt lat="47.33018" lon="-2.42417">
        <ele>48</ele>
        <time>2024-01-09T16:48:56Z</time>
      </trkpt>
      <trkpt lat="47.33001" lon="-2.42404">
        <ele>48</ele>
        <time>2024-01-09T16:49:21Z</time>
      </trkpt>
      <trkpt lat="47.32959" lon="-2.42304">
        <ele>47</ele>
        <time>2024-01-09T16:51:07Z</time>
      </trkpt>
      <trkpt lat="47.32947" lon="-2.42282">
        <ele>47</ele>
        <time>2024-01-09T16:51:33Z</time>
      </trkpt>
      <trkpt lat="47.32917" lon="-2.42207">
        <ele>45</ele>
        <time>2024-01-09T16:52:52Z</time>
      </trkpt>
      <trkpt lat="47.32905" lon="-2.42184">
        <ele>45</ele>
        <time>2024-01-09T16:53:18Z</time>
      </trkpt>
      <trkpt lat="47.32888" lon="-2.4217">
        <ele>45</ele>
        <time>2024-01-09T16:53:44Z</time>
      </trkpt>
      <trkpt lat="47.32826" lon="-2.42008">
        <ele>43</ele>
        <time>2024-01-09T16:56:32Z</time>
      </trkpt>
      <trkpt lat="47.32809" lon="-2.41995">
        <ele>44</ele>
        <time>2024-01-09T16:56:58Z</time>
      </trkpt>
      <trkpt lat="47.32798" lon="-2.41942">
        <ele>45</ele>
        <time>2024-01-09T16:57:48Z</time>
      </trkpt>
      <trkpt lat="47.32785" lon="-2.41918">
        <ele>46</ele>
        <time>2024-01-09T16:58:16Z</time>
      </trkpt>
      <trkpt lat="47.32755" lon="-2.41838">
        <ele>48</ele>
        <time>2024-01-09T16:59:38Z</time>
      </trkpt>
      <trkpt lat="47.32729" lon="-2.41788">
        <ele>48</ele>
        <time>2024-01-09T17:00:35Z</time>
      </trkpt>
      <trkpt lat="47.32713" lon="-2.41768">
        <ele>48</ele>
        <time>2024-01-09T17:01:03Z</time>
      </trkpt>
      <trkpt lat="47.32709" lon="-2.41741">
        <ele>48</ele>
        <time>2024-01-09T17:01:28Z</time>
      </trkpt>
      <trkpt lat="47.32717" lon="-2.41649">
        <ele>46</ele>
        <time>2024-01-09T17:02:52Z</time>
      </trkpt>
      <trkpt lat="47.32717" lon="-2.4162">
        <ele>46</ele>
        <time>2024-01-09T17:03:19Z</time>
      </trkpt>
      <trkpt lat="47.32708" lon="-2.41595">
        <ele>47</ele>
        <time>2024-01-09T17:03:44Z</time>
      </trkpt>
      <trkpt lat="47.32703" lon="-2.41566">
        <ele>47</ele>
        <time>2024-01-09T17:04:11Z</time>
      </trkpt>
      <trkpt lat="47.3272" lon="-2.41547">
        <ele>47</ele>
        <time>2024-01-09T17:04:40Z</time>
      </trkpt>
      <trkpt lat="47.32735" lon="-2.41522">
        <ele>47</ele>
        <time>2024-01-09T17:05:10Z</time>
      </trkpt>
      <trkpt lat="47.32741" lon="-2.41493">
        <ele>47</ele>
        <time>2024-01-09T17:05:37Z</time>
      </trkpt>
      <trkpt lat="47.32744" lon="-2.41462">
        <ele>47</ele>
        <time>2024-01-09T17:06:06Z</time>
      </trkpt>
      <trkpt lat="47.32743" lon="-2.41431">
        <ele>47</ele>
        <time>2024-01-09T17:06:34Z</time>
      </trkpt>
      <trkpt lat="47.32739" lon="-2.41402">
        <ele>47</ele>
        <time>2024-01-09T17:07:01Z</time>
      </trkpt>
      <trkpt lat="47.32727" lon="-2.4135">
        <ele>48</ele>
        <time>2024-01-09T17:07:50Z</time>
      </trkpt>
      <trkpt lat="47.32744" lon="-2.41331">
        <ele>47</ele>
        <time>2024-01-09T17:08:19Z</time>
      </trkpt>
      <trkpt lat="47.3275" lon="-2.41304">
        <ele>47</ele>
        <time>2024-01-09T17:08:44Z</time>
      </trkpt>
      <trkpt lat="47.3277" lon="-2.41294">
        <ele>47</ele>
        <time>2024-01-09T17:09:13Z</time>
      </trkpt>
      <trkpt lat="47.32808" lon="-2.41288">
        <ele>46</ele>
        <time>2024-01-09T17:10:04Z</time>
      </trkpt>
      <trkpt lat="47.3283" lon="-2.41293">
        <ele>46</ele>
        <time>2024-01-09T17:10:33Z</time>
      </trkpt>
      <trkpt lat="47.32848" lon="-2.41285">
        <ele>46</ele>
        <time>2024-01-09T17:10:58Z</time>
      </trkpt>
      <trkpt lat="47.3291" lon="-2.41279">
        <ele>47</ele>
        <time>2024-01-09T17:12:21Z</time>
      </trkpt>
      <trkpt lat="47.32928" lon="-2.41282">
        <ele>46</ele>
        <time>2024-01-09T17:12:45Z</time>
      </trkpt>
      <trkpt lat="47.3295" lon="-2.41272">
        <ele>46</ele>
        <time>2024-01-09T17:13:16Z</time>
      </trkpt>
      <trkpt lat="47.3297" lon="-2.41272">
        <ele>45</ele>
        <time>2024-01-09T17:13:43Z</time>
      </trkpt>
      <trkpt lat="47.3299" lon="-2.41263">
        <ele>45</ele>
        <time>2024-01-09T17:14:11Z</time>
      </trkpt>
      <trkpt lat="47.33004" lon="-2.41245">
        <ele>45</ele>
        <time>2024-01-09T17:14:36Z</time>
      </trkpt>
      <trkpt lat="47.3303" lon="-2.41199">
        <ele>45</ele>
        <time>2024-01-09T17:15:30Z</time>
      </trkpt>
      <trkpt lat="47.3304" lon="-2.41173">
        <ele>44</ele>
        <time>2024-01-09T17:15:57Z</time>
      </trkpt>
      <trkpt lat="47.33066" lon="-2.41124">
        <ele>44</ele>
        <time>2024-01-09T17:16:53Z</time>
      </trkpt>
      <trkpt lat="47.33076" lon="-2.41099">
        <ele>44</ele>
        <time>2024-01-09T17:17:19Z</time>
      </trkpt>
      <trkpt lat="47.33091" lon="-2.41043">
        <ele>44</ele>
        <time>2024-01-09T17:18:14Z</time>
      </trkpt>
      <trkpt lat="47.33092" lon="-2.41014">
        <ele>44</ele>
        <time>2024-01-09T17:18:40Z</time>
      </trkpt>
      <trkpt lat="47.3311" lon="-2.40999">
        <ele>43</ele>
        <time>2024-01-09T17:19:08Z</time>
      </trkpt>
      <trkpt lat="47.33142" lon="-2.40924">
        <ele>43</ele>
        <time>2024-01-09T17:20:28Z</time>
      </trkpt>
      <trkpt lat="47.33177" lon="-2.4086">
        <ele>43</ele>
        <time>2024-01-09T17:21:42Z</time>
      </trkpt>
      <trkpt lat="47.33218" lon="-2.40799">
        <ele>42</ele>
        <time>2024-01-09T17:23:00Z</time>
      </trkpt>
      <trkpt lat="47.3323" lon="-2.40765">
        <ele>41</ele>
        <time>2024-01-09T17:23:34Z</time>
      </trkpt>
      <trkpt lat="47.33237" lon="-2.40708">
        <ele>40</ele>
        <time>2024-01-09T17:24:27Z</time>
      </trkpt>
      <trkpt lat="47.33243" lon="-2.40679">
        <ele>39</ele>
        <time>2024-01-09T17:24:54Z</time>
      </trkpt>
      <trkpt lat="47.33282" lon="-2.4054">
        <ele>36</ele>
        <time>2024-01-09T17:27:10Z</time>
      </trkpt>
      <trkpt lat="47.33304" lon="-2.40494">
        <ele>36</ele>
        <time>2024-01-09T17:28:01Z</time>
      </trkpt>
      <trkpt lat="47.33313" lon="-2.40404">
        <ele>38</ele>
        <time>2024-01-09T17:29:24Z</time>
      </trkpt>
      <trkpt lat="47.33312" lon="-2.4037">
        <ele>39</ele>
        <time>2024-01-09T17:29:54Z</time>
      </trkpt>
      <trkpt lat="47.3333" lon="-2.40315">
        <ele>41</ele>
        <time>2024-01-09T17:30:50Z</time>
      </trkpt>
      <trkpt lat="47.33335" lon="-2.40287">
        <ele>42</ele>
        <time>2024-01-09T17:31:16Z</time>
      </trkpt>
      <trkpt lat="47.33352" lon="-2.40141">
        <ele>43</ele>
        <time>2024-01-09T17:33:30Z</time>
      </trkpt>
      <trkpt lat="47.33353" lon="-2.40084">
        <ele>43</ele>
        <time>2024-01-09T17:34:21Z</time>
      </trkpt>
      <trkpt lat="47.33356" lon="-2.40055">
        <ele>43</ele>
        <time>2024-01-09T17:34:48Z</time>
      </trkpt>
      <trkpt lat="47.33366" lon="-2.40029">
        <ele>43</ele>
        <time>2024-01-09T17:35:15Z</time>
      </trkpt>
      <trkpt lat="47.33384" lon="-2.40007">
        <ele>42</ele>
        <time>2024-01-09T17:35:46Z</time>
      </trkpt>
      <trkpt lat="47.33413" lon="-2.39955">
        <ele>41</ele>
        <time>2024-01-09T17:36:47Z</time>
      </trkpt>
      <trkpt lat="47.3349" lon="-2.39849">
        <ele>38</ele>
        <time>2024-01-09T17:39:07Z</time>
      </trkpt>
      <trkpt lat="47.33534" lon="-2.39783">
        <ele>37</ele>
        <time>2024-01-09T17:40:31Z</time>
      </trkpt>
      <trkpt lat="47.33583" lon="-2.39729">
        <ele>36</ele>
        <time>2024-01-09T17:41:53Z</time>
      </trkpt>
      <trkpt lat="47.33595" lon="-2.39703">
        <ele>36</ele>
        <time>2024-01-09T17:42:21Z</time>
      </trkpt>
      <trkpt lat="47.3361" lon="-2.39686">
        <ele>36</ele>
        <time>2024-01-09T17:42:47Z</time>
      </trkpt>
      <trkpt lat="47.33638" lon="-2.39637">
        <ele>37</ele>
        <time>2024-01-09T17:43:44Z</time>
      </trkpt>
      <trkpt lat="47.33678" lon="-2.39522">
        <ele>39</ele>
        <time>2024-01-09T17:45:41Z</time>
      </trkpt>
      <trkpt lat="47.33696" lon="-2.3946">
        <ele>39</ele>
        <time>2024-01-09T17:46:42Z</time>
      </trkpt>
      <trkpt lat="47.33705" lon="-2.39402">
        <ele>38</ele>
        <time>2024-01-09T17:47:36Z</time>
      </trkpt>
      <trkpt lat="47.3371" lon="-2.39317">
        <ele>36</ele>
        <time>2024-01-09T17:48:53Z</time>
      </trkpt>
      <trkpt lat="47.33729" lon="-2.39302">
        <ele>36</ele>
        <time>2024-01-09T17:49:22Z</time>
      </trkpt>
      <trkpt lat="47.33769" lon="-2.39301">
        <ele>35</ele>
        <time>2024-01-09T17:50:15Z</time>
      </trkpt>
      <trkpt lat="47.33806" lon="-2.3929">
        <ele>34</ele>
        <time>2024-01-09T17:51:06Z</time>
      </trkpt>
      <trkpt lat="47.3387" lon="-2.39283">
        <ele>33</ele>
        <time>2024-01-09T17:52:31Z</time>
      </trkpt>
      <trkpt lat="47.33889" lon="-2.39278">
        <ele>33</ele>
        <time>2024-01-09T17:52:57Z</time>
      </trkpt>
      <trkpt lat="47.3404" lon="-2.39254">
        <ele>30</ele>
        <time>2024-01-09T17:56:20Z</time>
      </trkpt>
      <trkpt lat="47.3406" lon="-2.39259">
        <ele>30</ele>
        <time>2024-01-09T17:56:47Z</time>
      </trkpt>
      <trkpt lat="47.34073" lon="-2.39319">
        <ele>31</ele>
        <time>2024-01-09T17:57:44Z</time>
      </trkpt>
      <trkpt lat="47.34087" lon="-2.39411">
        <ele>32</ele>
        <time>2024-01-09T17:59:09Z</time>
      </trkpt>
      <trkpt lat="47.34096" lon="-2.39434">
        <ele>31</ele>
        <time>2024-01-09T17:59:33Z</time>
      </trkpt>
      <trkpt lat="47.34115" lon="-2.39429">
        <ele>31</ele>
        <time>2024-01-09T17:59:59Z</time>
      </trkpt>
      <trkpt lat="47.34134" lon="-2.39419">
        <ele>31</ele>
        <time>2024-01-09T18:00:26Z</time>
      </trkpt>
      <trkpt lat="47.34171" lon="-2.39391">
        <ele>31</ele>
        <time>2024-01-09T18:01:21Z</time>
      </trkpt>
      <trkpt lat="47.34189" lon="-2.39381">
        <ele>30</ele>
        <time>2024-01-09T18:01:47Z</time>
      </trkpt>
      <trkpt lat="47.34225" lon="-2.39355">
        <ele>30</ele>
        <time>2024-01-09T18:02:41Z</time>
      </trkpt>
      <trkpt lat="47.34285" lon="-2.39319">
        <ele>29</ele>
        <time>2024-01-09T18:04:07Z</time>
      </trkpt>
      <trkpt lat="47.34306" lon="-2.39311">
        <ele>28</ele>
        <time>2024-01-09T18:04:36Z</time>
      </trkpt>
      <trkpt lat="47.34342" lon="-2.39289">
        <ele>27</ele>
        <time>2024-01-09T18:05:28Z</time>
      </trkpt>
      <trkpt lat="47.34365" lon="-2.3928">
        <ele>26</ele>
        <time>2024-01-09T18:06:00Z</time>
      </trkpt>
      <trkpt lat="47.34403" lon="-2.3926">
        <ele>25</ele>
        <time>2024-01-09T18:06:54Z</time>
      </trkpt>
      <trkpt lat="47.34484" lon="-2.39239">
        <ele>21</ele>
        <time>2024-01-09T18:08:43Z</time>
      </trkpt>
      <trkpt lat="47.34503" lon="-2.39232">
        <ele>20</ele>
        <time>2024-01-09T18:09:09Z</time>
      </trkpt>
      <trkpt lat="47.34541" lon="-2.39229">
        <ele>19</ele>
        <time>2024-01-09T18:10:00Z</time>
      </trkpt>
      <trkpt lat="47.34561" lon="-2.39235">
        <ele>18</ele>
        <time>2024-01-09T18:10:27Z</time>
      </trkpt>
      <trkpt lat="47.34582" lon="-2.39244">
        <ele>18</ele>
        <time>2024-01-09T18:10:57Z</time>
      </trkpt>
      <trkpt lat="47.34618" lon="-2.39267">
        <ele>17</ele>
        <time>2024-01-09T18:11:49Z</time>
      </trkpt>
      <trkpt lat="47.34652" lon="-2.39299">
        <ele>17</ele>
        <time>2024-01-09T18:12:43Z</time>
      </trkpt>
      <trkpt lat="47.34666" lon="-2.3932">
        <ele>17</ele>
        <time>2024-01-09T18:13:09Z</time>
      </trkpt>
      <trkpt lat="47.34687" lon="-2.3937">
        <ele>17</ele>
        <time>2024-01-09T18:14:03Z</time>
      </trkpt>
      <trkpt lat="47.34712" lon="-2.39453">
        <ele>18</ele>
        <time>2024-01-09T18:15:25Z</time>
      </trkpt>
      <trkpt lat="47.34717" lon="-2.39482">
        <ele>17</ele>
        <time>2024-01-09T18:15:52Z</time>
      </trkpt>
      <trkpt lat="47.34719" lon="-2.39512">
        <ele>18</ele>
        <time>2024-01-09T18:16:19Z</time>
      </trkpt>
      <trkpt lat="47.34717" lon="-2.39573">
        <ele>20</ele>
        <time>2024-01-09T18:17:14Z</time>
      </trkpt>
      <trkpt lat="47.34713" lon="-2.39599">
        <ele>20</ele>
        <time>2024-01-09T18:17:38Z</time>
      </trkpt>
      <trkpt lat="47.347" lon="-2.3962">
        <ele>20</ele>
        <time>2024-01-09T18:18:04Z</time>
      </trkpt>
      <trkpt lat="47.34688" lon="-2.39646">
        <ele>20</ele>
        <time>2024-01-09T18:18:33Z</time>
      </trkpt>
      <trkpt lat="47.34683" lon="-2.39675">
        <ele>20</ele>
        <time>2024-01-09T18:19:00Z</time>
      </trkpt>
      <trkpt lat="47.34678" lon="-2.3974">
        <ele>21</ele>
        <time>2024-01-09T18:19:59Z</time>
      </trkpt>
      <trkpt lat="47.34679" lon="-2.3977">
        <ele>21</ele>
        <time>2024-01-09T18:20:26Z</time>
      </trkpt>
      <trkpt lat="47.34668" lon="-2.39798">
        <ele>22</ele>
        <time>2024-01-09T18:20:55Z</time>
      </trkpt>
      <trkpt lat="47.3462" lon="-2.39863">
        <ele>23</ele>
        <time>2024-01-09T18:22:22Z</time>
      </trkpt>
      <trkpt lat="47.34604" lon="-2.39916">
        <ele>24</ele>
        <time>2024-01-09T18:23:15Z</time>
      </trkpt>
      <trkpt lat="47.34603" lon="-2.39946">
        <ele>23</ele>
        <time>2024-01-09T18:23:42Z</time>
      </trkpt>
      <trkpt lat="47.34593" lon="-2.39972">
        <ele>23</ele>
        <time>2024-01-09T18:24:09Z</time>
      </trkpt>
      <trkpt lat="47.34594" lon="-2.40001">
        <ele>23</ele>
        <time>2024-01-09T18:24:35Z</time>
      </trkpt>
      <trkpt lat="47.34605" lon="-2.40023">
        <ele>23</ele>
        <time>2024-01-09T18:25:00Z</time>
      </trkpt>
      <trkpt lat="47.34658" lon="-2.40107">
        <ele>23</ele>
        <time>2024-01-09T18:26:43Z</time>
      </trkpt>
      <trkpt lat="47.34679" lon="-2.40121">
        <ele>22</ele>
        <time>2024-01-09T18:27:14Z</time>
      </trkpt>
      <trkpt lat="47.347" lon="-2.40125">
        <ele>22</ele>
        <time>2024-01-09T18:27:42Z</time>
      </trkpt>
      <trkpt lat="47.34719" lon="-2.40133">
        <ele>22</ele>
        <time>2024-01-09T18:28:09Z</time>
      </trkpt>
      <trkpt lat="47.34736" lon="-2.40149">
        <ele>22</ele>
        <time>2024-01-09T18:28:36Z</time>
      </trkpt>
      <trkpt lat="47.34777" lon="-2.40207">
        <ele>23</ele>
        <time>2024-01-09T18:29:52Z</time>
      </trkpt>
      <trkpt lat="47.34794" lon="-2.40218">
        <ele>22</ele>
        <time>2024-01-09T18:30:16Z</time>
      </trkpt>
      <trkpt lat="47.34843" lon="-2.40307">
        <ele>20</ele>
        <time>2024-01-09T18:32:00Z</time>
      </trkpt>
      <trkpt lat="47.34853" lon="-2.4033">
        <ele>19</ele>
        <time>2024-01-09T18:32:25Z</time>
      </trkpt>
      <trkpt lat="47.3486" lon="-2.40358">
        <ele>18</ele>
        <time>2024-01-09T18:32:52Z</time>
      </trkpt>
      <trkpt lat="47.34884" lon="-2.40501">
        <ele>15</ele>
        <time>2024-01-09T18:35:05Z</time>
      </trkpt>
      <trkpt lat="47.34887" lon="-2.40529">
        <ele>15</ele>
        <time>2024-01-09T18:35:31Z</time>
      </trkpt>
      <trkpt lat="47.34886" lon="-2.40558">
        <ele>15</ele>
        <time>2024-01-09T18:35:57Z</time>
      </trkpt>
      <trkpt lat="47.34873" lon="-2.40578">
        <ele>15</ele>
        <time>2024-01-09T18:36:22Z</time>
      </trkpt>
      <trkpt lat="47.34843" lon="-2.40613">
        <ele>15</ele>
        <time>2024-01-09T18:37:13Z</time>
      </trkpt>
      <trkpt lat="47.34834" lon="-2.40638">
        <ele>16</ele>
        <time>2024-01-09T18:37:38Z</time>
      </trkpt>
      <trkpt lat="47.34823" lon="-2.40698">
        <ele>17</ele>
        <time>2024-01-09T18:38:35Z</time>
      </trkpt>
      <trkpt lat="47.34823" lon="-2.40729">
        <ele>17</ele>
        <time>2024-01-09T18:39:03Z</time>
      </trkpt>
      <trkpt lat="47.34828" lon="-2.4076">
        <ele>18</ele>
        <time>2024-01-09T18:39:32Z</time>
      </trkpt>
      <trkpt lat="47.34846" lon="-2.40776">
        <ele>19</ele>
        <time>2024-01-09T18:40:00Z</time>
      </trkpt>
      <trkpt lat="47.34889" lon="-2.40776">
        <ele>18</ele>
        <time>2024-01-09T18:40:57Z</time>
      </trkpt>
      <trkpt lat="47.34903" lon="-2.40797">
        <ele>19</ele>
        <time>2024-01-09T18:41:24Z</time>
      </trkpt>
      <trkpt lat="47.34913" lon="-2.40822">
        <ele>20</ele>
        <time>2024-01-09T18:41:50Z</time>
      </trkpt>
      <trkpt lat="47.34926" lon="-2.40843">
        <ele>20</ele>
        <time>2024-01-09T18:42:16Z</time>
      </trkpt>
      <trkpt lat="47.34935" lon="-2.40868">
        <ele>20</ele>
        <time>2024-01-09T18:42:41Z</time>
      </trkpt>
      <trkpt lat="47.34943" lon="-2.40926">
        <ele>22</ele>
        <time>2024-01-09T18:43:35Z</time>
      </trkpt>
      <trkpt lat="47.34932" lon="-2.41046">
        <ele>21</ele>
        <time>2024-01-09T18:45:24Z</time>
      </trkpt>
      <trkpt lat="47.34959" lon="-2.41123">
        <ele>17</ele>
        <time>2024-01-09T18:46:43Z</time>
      </trkpt>
      <trkpt lat="47.35009" lon="-2.41238">
        <ele>17</ele>
        <time>2024-01-09T18:48:46Z</time>
      </trkpt>
      <trkpt lat="47.35056" lon="-2.41364">
        <ele>18</ele>
        <time>2024-01-09T18:50:56Z</time>
      </trkpt>
      <trkpt lat="47.3507" lon="-2.41393">
        <ele>17</ele>
        <time>2024-01-09T18:51:28Z</time>
      </trkpt>
      <trkpt lat="47.35067" lon="-2.41421">
        <ele>17</ele>
        <time>2024-01-09T18:51:54Z</time>
      </trkpt>
      <trkpt lat="47.3505" lon="-2.41427">
        <ele>18</ele>
        <time>2024-01-09T18:52:17Z</time>
      </trkpt>
      <trkpt lat="47.34993" lon="-2.41455">
        <ele>20</ele>
        <time>2024-01-09T18:53:37Z</time>
      </trkpt>
      <trkpt lat="47.34957" lon="-2.41469">
        <ele>20</ele>
        <time>2024-01-09T18:54:27Z</time>
      </trkpt>
      <trkpt lat="47.34875" lon="-2.41494">
        <ele>20</ele>
        <time>2024-01-09T18:56:19Z</time>
      </trkpt>
      <trkpt lat="47.34833" lon="-2.4151">
        <ele>22</ele>
        <time>2024-01-09T18:57:17Z</time>
      </trkpt>
      <trkpt lat="47.34795" lon="-2.41516">
        <ele>21</ele>
        <time>2024-01-09T18:58:08Z</time>
      </trkpt>
      <trkpt lat="47.34754" lon="-2.41528">
        <ele>20</ele>
        <time>2024-01-09T18:59:04Z</time>
      </trkpt>
      <trkpt lat="47.34737" lon="-2.41536">
        <ele>20</ele>
        <time>2024-01-09T18:59:27Z</time>
      </trkpt>
      <trkpt lat="47.34717" lon="-2.41539">
        <ele>20</ele>
        <time>2024-01-09T18:59:54Z</time>
      </trkpt>
      <trkpt lat="47.34663" lon="-2.41557">
        <ele>20</ele>
        <time>2024-01-09T19:01:08Z</time>
      </trkpt>
      <trkpt lat="47.34643" lon="-2.4156">
        <ele>20</ele>
        <time>2024-01-09T19:01:35Z</time>
      </trkpt>
      <trkpt lat="47.34568" lon="-2.41595">
        <ele>21</ele>
        <time>2024-01-09T19:03:20Z</time>
      </trkpt>
      <trkpt lat="47.34547" lon="-2.416">
        <ele>22</ele>
        <time>2024-01-09T19:03:48Z</time>
      </trkpt>
      <trkpt lat="47.34508" lon="-2.41617">
        <ele>23</ele>
        <time>2024-01-09T19:04:42Z</time>
      </trkpt>
      <trkpt lat="47.34473" lon="-2.41635">
        <ele>24</ele>
        <time>2024-01-09T19:05:32Z</time>
      </trkpt>
      <trkpt lat="47.34456" lon="-2.41647">
        <ele>25</ele>
        <time>2024-01-09T19:05:57Z</time>
      </trkpt>
      <trkpt lat="47.34439" lon="-2.41667">
        <ele>25</ele>
        <time>2024-01-09T19:06:26Z</time>
      </trkpt>
      <trkpt lat="47.34427" lon="-2.41687">
        <ele>26</ele>
        <time>2024-01-09T19:06:50Z</time>
      </trkpt>
      <trkpt lat="47.34392" lon="-2.41712">
        <ele>27</ele>
        <time>2024-01-09T19:07:42Z</time>
      </trkpt>
      <trkpt lat="47.34358" lon="-2.41734">
        <ele>27</ele>
        <time>2024-01-09T19:08:32Z</time>
      </trkpt>
      <trkpt lat="47.34301" lon="-2.41759">
        <ele>28</ele>
        <time>2024-01-09T19:09:51Z</time>
      </trkpt>
      <trkpt lat="47.34263" lon="-2.41784">
        <ele>29</ele>
        <time>2024-01-09T19:10:47Z</time>
      </trkpt>
      <trkpt lat="47.34244" lon="-2.41793">
        <ele>30</ele>
        <time>2024-01-09T19:11:13Z</time>
      </trkpt>
      <trkpt lat="47.34227" lon="-2.41779">
        <ele>30</ele>
        <time>2024-01-09T19:11:39Z</time>
      </trkpt>
      <trkpt lat="47.34209" lon="-2.41722">
        <ele>28</ele>
        <time>2024-01-09T19:12:36Z</time>
      </trkpt>
      <trkpt lat="47.34196" lon="-2.41699">
        <ele>28</ele>
        <time>2024-01-09T19:13:03Z</time>
      </trkpt>
      <trkpt lat="47.34179" lon="-2.41711">
        <ele>29</ele>
        <time>2024-01-09T19:13:28Z</time>
      </trkpt>
      <trkpt lat="47.34131" lon="-2.4176">
        <ele>31</ele>
        <time>2024-01-09T19:14:46Z</time>
      </trkpt>
      <trkpt lat="47.34083" lon="-2.418">
        <ele>32</ele>
        <time>2024-01-09T19:16:00Z</time>
      </trkpt>
      <trkpt lat="47.34067" lon="-2.41817">
        <ele>32</ele>
        <time>2024-01-09T19:16:26Z</time>
      </trkpt>
      <trkpt lat="47.34025" lon="-2.41884">
        <ele>32</ele>
        <time>2024-01-09T19:17:49Z</time>
      </trkpt>
      <trkpt lat="47.33983" lon="-2.41944">
        <ele>34</ele>
        <time>2024-01-09T19:19:07Z</time>
      </trkpt>
      <trkpt lat="47.33939" lon="-2.41998">
        <ele>37</ele>
        <time>2024-01-09T19:20:23Z</time>
      </trkpt>
      <trkpt lat="47.33923" lon="-2.42016">
        <ele>38</ele>
        <time>2024-01-09T19:20:50Z</time>
      </trkpt>
      <trkpt lat="47.33886" lon="-2.42049">
        <ele>38</ele>
        <time>2024-01-09T19:21:47Z</time>
      </trkpt>
      <trkpt lat="47.33833" lon="-2.42084">
        <ele>37</ele>
        <time>2024-01-09T19:23:05Z</time>
      </trkpt>
      <trkpt lat="47.33819" lon="-2.42107">
        <ele>37</ele>
        <time>2024-01-09T19:23:33Z</time>
      </trkpt>
      <trkpt lat="47.33836" lon="-2.42253">
        <ele>38</ele>
        <time>2024-01-09T19:25:47Z</time>
      </trkpt>
      <trkpt lat="47.33847" lon="-2.42312">
        <ele>40</ele>
        <time>2024-01-09T19:26:42Z</time>
      </trkpt>
      <trkpt lat="47.33855" lon="-2.42395">
        <ele>40</ele>
        <time>2024-01-09T19:27:58Z</time>
      </trkpt>
      <trkpt lat="47.33867" lon="-2.42448">
        <ele>40</ele>
        <time>2024-01-09T19:28:49Z</time>
      </trkpt>
      <trkpt lat="47.33851" lon="-2.4246">
        <ele>39</ele>
        <time>2024-01-09T19:29:13Z</time>
      </trkpt>
      <trkpt lat="47.33841" lon="-2.42483">
        <ele>39</ele>
        <time>2024-01-09T19:29:37Z</time>
      </trkpt>
      <trkpt lat="47.33811" lon="-2.42599">
        <ele>41</ele>
        <time>2024-01-09T19:31:30Z</time>
      </trkpt>
      <trkpt lat="47.338" lon="-2.42621">
        <ele>42</ele>
        <time>2024-01-09T19:31:54Z</time>
      </trkpt>
      <trkpt lat="47.33793" lon="-2.42648">
        <ele>42</ele>
        <time>2024-01-09T19:32:20Z</time>
      </trkpt>
      <trkpt lat="47.33778" lon="-2.42737">
        <ele>39</ele>
        <time>2024-01-09T19:33:43Z</time>
      </trkpt>
      <trkpt lat="47.33758" lon="-2.42741">
        <ele>39</ele>
        <time>2024-01-09T19:34:10Z</time>
      </trkpt>
      <trkpt lat="47.3374" lon="-2.42738">
        <ele>40</ele>
        <time>2024-01-09T19:34:34Z</time>
      </trkpt>
      <trkpt lat="47.33719" lon="-2.42738">
        <ele>40</ele>
        <time>2024-01-09T19:35:02Z</time>
      </trkpt>
      <trkpt lat="47.33662" lon="-2.42722">
        <ele>41</ele>
        <time>2024-01-09T19:36:20Z</time>
      </trkpt>
      <trkpt lat="47.33581" lon="-2.42745">
        <ele>41</ele>
        <time>2024-01-09T19:38:10Z</time>
      </trkpt>
      <trkpt lat="47.33572" lon="-2.42719">
        <ele>41</ele>
        <time>2024-01-09T19:38:36Z</time>
      </trkpt>
      <trkpt lat="47.33584" lon="-2.42658">
        <ele>42</ele>
        <time>2024-01-09T19:39:34Z</time>
      </trkpt>
      <trkpt lat="47.33584" lon="-2.42631">
        <ele>42</ele>
        <time>2024-01-09T19:39:58Z</time>
      </trkpt>
      <trkpt lat="47.33575" lon="-2.42551">
        <ele>42</ele>
        <time>2024-01-09T19:41:12Z</time>
      </trkpt>
      <trkpt lat="47.33567" lon="-2.42526">
        <ele>43</ele>
        <time>2024-01-09T19:41:37Z</time>
      </trkpt>
      <trkpt lat="47.33554" lon="-2.42506">
        <ele>43</ele>
        <time>2024-01-09T19:42:02Z</time>
      </trkpt>
      <trkpt lat="47.33509" lon="-2.42486">
        <ele>45</ele>
        <time>2024-01-09T19:43:04Z</time>
      </trkpt>
      <trkpt lat="47.3349" lon="-2.4248">
        <ele>45</ele>
        <time>2024-01-09T19:43:30Z</time>
      </trkpt>
      <trkpt lat="47.33456" lon="-2.42446">
        <ele>47</ele>
        <time>2024-01-09T19:44:25Z</time>
      </trkpt>
      <trkpt lat="47.33418" lon="-2.42433">
        <ele>49</ele>
        <time>2024-01-09T19:45:17Z</time>
      </trkpt>
      <trkpt lat="47.33396" lon="-2.42432">
        <ele>49</ele>
        <time>2024-01-09T19:45:46Z</time>
      </trkpt>
      <trkpt lat="47.33364" lon="-2.42466">
        <ele>48</ele>
        <time>2024-01-09T19:46:39Z</time>
      </trkpt>
      <trkpt lat="47.33328" lon="-2.42488">
        <ele>48</ele>
        <time>2024-01-09T19:47:31Z</time>
      </trkpt>
      <trkpt lat="47.33264" lon="-2.42545">
        <ele>47</ele>
        <time>2024-01-09T19:49:11Z</time>
      </trkpt>
      <trkpt lat="47.33251" lon="-2.42564">
        <ele>46</ele>
        <time>2024-01-09T19:49:35Z</time>
      </trkpt>
      <trkpt lat="47.332" lon="-2.426">
        <ele>45</ele>
        <time>2024-01-09T19:50:51Z</time>
      </trkpt>
      <trkpt lat="47.33184" lon="-2.42586">
        <ele>45</ele>
        <time>2024-01-09T19:51:16Z</time>
      </trkpt>
      <trkpt lat="47.33174" lon="-2.4256">
        <ele>45</ele>
        <time>2024-01-09T19:51:43Z</time>
      </trkpt>
      <trkpt lat="47.33155" lon="-2.42556">
        <ele>46</ele>
        <time>2024-01-09T19:52:08Z</time>
      </trkpt>
      <trkpt lat="47.33139" lon="-2.42571">
        <ele>46</ele>
        <time>2024-01-09T19:52:34Z</time>
      </trkpt>
      <trkpt lat="47.33132" lon="-2.42601">
        <ele>46</ele>
        <time>2024-01-09T19:53:02Z</time>
      </trkpt>
      <trkpt lat="47.33131" lon="-2.42622">
        <ele>46</ele>
        <time>2024-01-09T19:53:21Z</time>
      </trkpt>
      <trkpt lat="47.33131" lon="-2.4262">
        <ele>46</ele>
        <time>2024-01-09T19:53:23Z</time>
      </trkpt>
    </trkseg>
  </trk>
</gpx>